Terminal Aerodrome Forecast
Issued by NWS

Home | Current Version | Previous Version | Text Only | Print | Product List | Glossary On
Versions: 1 2 3 4 5 6 7 8 9 10 11 12 13
000
FTUS46 KMTR 131127
TAFSNS
TAF
KSNS 131127Z 1312/1412 11010KT P6SM SKC
     FM131900 10007KT P6SM SKC
     FM132200 30006KT P6SM SKC
     FM140400 VRB03KT P6SM SKC
     FM140800 11006KT P6SM SKC=

USA.gov is the U.S. government's official web portal to all federal, state and local government web resources and services.